Time;durP1;ratioP1;P1;durP2;ratioP2;P2;SDS_P1;SDS_P2;PMS_P1;PMS_P2;Temp;Humidity;BMP_temperature;BMP_pressure;BME280_temperature;BME280_humidity;BME280_pressure;Samples;Min_cycle;Max_cycle;Signal;HPM_P1;HPM_P2
2021/09/04 00:01:33;;;;;;;31.20;17.98;;;14.70;99.90;;;16.22;100.00;100814.31;6156609;23;20037;-87
2021/09/04 00:03:58;;;;;;;32.88;16.65;;;14.70;99.90;;;16.23;100.00;100815.13;6131220;23;20511;-87
2021/09/04 00:06:24;;;;;;;31.63;16.40;;;14.70;99.90;;;16.17;100.00;100811.06;6155930;23;20104;-87
2021/09/04 00:08:50;;;;;;;29.45;16.55;;;14.60;99.90;;;16.11;100.00;100815.44;6132403;23;20006;-87
2021/09/04 00:11:16;;;;;;;31.27;18.38;;;14.60;99.90;;;16.11;100.00;100812.63;6158784;23;20494;-89
2021/09/04 00:13:42;;;;;;;36.05;19.45;;;14.60;99.90;;;16.17;100.00;100813.88;6157318;23;20037;-89
2021/09/04 00:16:10;;;;;;;36.85;20.98;;;14.50;99.90;;;16.22;100.00;100817.13;6157443;23;20001;-87
2021/09/04 00:18:35;;;;;;;35.75;20.15;;;14.70;99.90;;;16.24;100.00;100805.47;6158811;23;20061;-86
2021/09/04 00:21:03;;;;;;;33.22;20.25;;;14.60;99.90;;;16.25;100.00;100812.72;6160255;23;20010;-86
2021/09/04 00:23:29;;;;;;;39.25;19.92;;;14.70;99.90;;;16.29;100.00;100803.09;6132727;23;20013;-88
2021/09/04 00:25:55;;;;;;;39.00;21.17;;;14.70;99.90;;;16.29;100.00;100805.09;6133071;23;20020;-87
2021/09/04 00:28:21;;;;;;;33.58;19.40;;;14.70;99.90;;;16.27;100.00;100797.03;6132617;23;20101;-88
2021/09/04 00:30:47;;;;;;;35.88;20.02;;;14.70;99.90;;;16.29;100.00;100800.25;6127544;23;20021;-89
2021/09/04 00:33:13;;;;;;;33.38;20.08;;;14.70;99.90;;;16.21;100.00;100804.22;6157432;23;20037;-88
2021/09/04 00:35:40;;;;;;;41.92;22.08;;;14.70;99.90;;;16.18;100.00;100801.41;6158698;23;20006;-91
2021/09/04 00:38:06;;;;;;;35.78;21.08;;;14.70;99.90;;;16.19;100.00;100800.19;6157949;23;20017;-89
2021/09/04 00:40:32;;;;;;;35.30;19.77;;;14.60;99.90;;;16.18;100.00;100802.19;6157633;23;20020;-87
2021/09/04 00:42:58;;;;;;;34.55;19.27;;;14.60;99.90;;;16.10;100.00;100789.28;6158119;23;20009;-89
2021/09/04 00:45:24;;;;;;;34.50;20.27;;;14.50;99.90;;;16.07;100.00;100798.50;6158295;23;20010;-87
2021/09/04 00:48:04;;;;;;;31.13;19.65;;;14.50;99.90;;;16.03;100.00;100794.84;6158428;23;20009;-89
2021/09/04 00:50:35;;;;;;;34.75;19.83;;;14.50;99.90;;;15.99;100.00;100788.38;6161791;23;20006;-90
2021/09/04 00:53:03;;;;;;;44.00;21.33;;;14.40;99.90;;;15.93;100.00;100789.94;6157735;23;20163;-90
2021/09/04 00:55:30;;;;;;;38.92;20.90;;;14.40;99.90;;;15.88;100.00;100778.25;6157359;23;20116;-87
2021/09/04 00:57:58;;;;;;;44.40;22.05;;;14.30;99.90;;;15.85;100.00;100788.28;6156590;23;20345;-87
2021/09/04 01:00:24;;;;;;;34.72;20.27;;;14.30;99.90;;;15.83;100.00;100780.22;6157047;23;20096;-88
2021/09/04 01:02:50;;;;;;;32.58;19.48;;;14.30;99.90;;;15.78;100.00;100785.41;6133267;23;20016;-88
2021/09/04 01:05:17;;;;;;;27.60;18.23;;;14.20;99.90;;;15.68;100.00;100781.31;6132625;23;20009;-89
2021/09/04 01:07:44;;;;;;;41.50;22.13;;;14.10;99.90;;;15.57;100.00;100776.78;6157330;23;20041;-88
2021/09/04 01:10:12;;;;;;;43.70;23.55;;;14.00;99.90;;;15.57;100.00;100774.75;6156995;23;20383;-89
2021/09/04 01:12:39;;;;;;;43.80;24.80;;;14.00;99.90;;;15.61;100.00;100777.59;6157536;23;20008;-87
2021/09/04 01:15:09;;;;;;;38.33;20.58;;;14.00;99.90;;;15.62;100.00;100771.59;6157460;23;20005;-89
2021/09/04 01:17:36;;;;;;;39.15;21.92;;;14.00;99.90;;;15.61;100.00;100775.59;6132569;23;20001;-86
2021/09/04 01:20:04;;;;;;;41.00;22.67;;;14.00;99.90;;;15.61;100.00;100774.78;6156921;23;20355;-87
2021/09/04 01:22:32;;;;;;;40.72;23.88;;;14.00;99.90;;;15.58;100.00;100776.38;6158366;23;20016;-87
2021/09/04 01:25:06;;;;;;;42.10;22.55;;;13.90;99.90;;;15.57;100.00;100779.59;6159090;23;20005;-90
2021/09/04 01:27:38;;;;;;;39.13;22.77;;;13.90;99.90;;;15.49;100.00;100772.28;6159038;23;20070;-90
2021/09/04 01:30:07;;;;;;;36.50;20.73;;;13.80;99.90;;;15.40;100.00;100775.41;6158512;23;20017;-89
2021/09/04 01:32:34;;;;;;;36.20;22.42;;;13.80;99.90;;;15.36;100.00;100777.38;6134718;23;20016;-89
2021/09/04 01:35:12;;;;;;;31.70;20.60;;;13.80;99.90;;;15.30;100.00;100785.34;6134780;23;20038;-88
2021/09/04 01:37:39;;;;;;;34.65;21.55;;;13.70;99.90;;;15.29;100.00;100788.53;6160019;23;20001;-89
2021/09/04 01:40:14;;;;;;;40.75;22.90;;;13.70;99.90;;;15.28;100.00;100787.72;6160088;23;20450;-89
2021/09/04 01:42:47;;;;;;;43.80;23.63;;;13.70;99.90;;;15.33;100.00;100786.56;6159649;23;20084;-88
2021/09/04 01:45:14;;;;;;;41.70;23.27;;;13.70;99.90;;;15.36;100.00;100790.63;6160399;23;20021;-87
2021/09/04 01:47:40;;;;;;;45.20;22.95;;;13.70;99.90;;;15.37;100.00;100792.25;6135366;23;20017;-88
2021/09/04 01:50:09;;;;;;;47.13;24.85;;;13.70;99.90;;;15.40;100.00;100789.47;6135992;23;20012;-87
2021/09/04 01:52:40;;;;;;;43.45;23.45;;;13.80;99.90;;;15.37;100.00;100781.00;6138403;23;20009;-88
2021/09/04 01:55:12;;;;;;;47.42;24.90;;;13.80;99.90;;;15.43;100.00;100780.25;6154616;23;20006;-87
2021/09/04 01:57:39;;;;;;;50.28;25.60;;;13.80;99.90;;;15.47;100.00;100771.84;6167693;23;20014;-88
2021/09/04 02:00:10;;;;;;;43.67;25.42;;;13.90;99.90;;;15.52;100.00;100766.69;6171059;23;20013;-86
2021/09/04 02:02:37;;;;;;;46.80;25.17;;;13.90;99.90;;;15.55;100.00;100779.16;6169437;23;20001;-90
2021/09/04 02:05:05;;;;;;;44.58;24.65;;;13.90;99.90;;;15.54;100.00;100767.09;6158484;23;20017;-87
2021/09/04 02:07:31;;;;;;;49.25;25.83;;;13.90;99.90;;;15.54;100.00;100771.94;6158133;23;20351;-87
2021/09/04 02:09:57;;;;;;;46.63;23.95;;;13.90;99.90;;;15.52;100.00;100761.06;6158080;23;20013;-90
2021/09/04 02:12:24;;;;;;;43.90;24.88;;;13.90;99.90;;;15.54;100.00;100764.28;6159980;23;20010;-88
2021/09/04 02:14:52;;;;;;;40.05;23.50;;;13.90;99.90;;;15.51;100.00;100765.06;6133630;23;20132;-87
2021/09/04 02:17:18;;;;;;;50.47;26.52;;;13.90;99.90;;;15.54;100.00;100769.13;6157870;23;20009;-90
2021/09/04 02:19:47;;;;;;;49.90;26.10;;;13.90;99.90;;;15.49;100.00;100766.66;6159783;23;20025;-88
2021/09/04 02:22:14;;;;;;;44.75;26.70;;;13.90;99.90;;;15.49;100.00;100759.03;6133714;23;20335;-87
2021/09/04 02:24:40;;;;;;;51.00;26.38;;;13.90;99.90;;;15.51;100.00;100767.09;6134037;23;20036;-87
2021/09/04 02:27:07;;;;;;;49.42;26.05;;;13.90;99.90;;;15.49;100.00;100764.66;6133831;23;20014;-88
2021/09/04 02:29:34;;;;;;;46.13;25.98;;;13.90;99.90;;;15.53;100.00;100767.50;6134866;23;20020;-88
2021/09/04 02:32:00;;;;;;;48.67;24.95;;;13.90;99.90;;;15.50;100.00;100765.47;6181579;23;20010;-87
2021/09/04 02:34:26;;;;;;;48.88;25.70;;;13.90;99.90;;;15.51;100.00;100767.88;6158239;23;20379;-87
2021/09/04 02:36:52;;;;;;;43.35;25.13;;;13.90;99.90;;;15.53;100.00;100762.69;6158422;23;20017;-87
2021/09/04 02:39:18;;;;;;;45.88;26.13;;;13.90;99.90;;;15.57;100.00;100771.16;6158310;23;20014;-88
2021/09/04 02:41:44;;;;;;;45.17;25.17;;;13.90;99.90;;;15.54;100.00;100760.69;6158197;23;20005;-87
2021/09/04 02:44:09;;;;;;;44.60;25.42;;;13.80;99.90;;;15.53;100.00;100765.50;6158487;23;20015;-87
2021/09/04 02:46:36;;;;;;;41.58;24.50;;;13.90;99.90;;;15.54;100.00;100766.31;6161570;23;20435;-90
2021/09/04 02:49:02;;;;;;;45.25;23.27;;;13.80;99.90;;;15.53;100.00;100759.06;6164233;23;20010;-88
2021/09/04 02:51:27;;;;;;;44.13;24.67;;;13.90;99.90;;;15.54;100.00;100761.47;6163964;23;20009;-91
2021/09/04 02:53:53;;;;;;;44.17;25.40;;;13.80;99.90;;;15.55;100.00;100765.09;6165027;23;20064;-86
2021/09/04 02:56:19;;;;;;;41.80;23.33;;;13.90;99.90;;;15.55;100.00;100762.28;6161537;23;20435;-87
2021/09/04 02:58:45;;;;;;;43.80;24.00;;;13.80;99.90;;;15.49;100.00;100764.66;6161110;23;20016;-88
2021/09/04 03:01:11;;;;;;;44.17;23.92;;;13.90;99.90;;;15.48;100.00;100763.03;6162043;23;20008;-90
2021/09/04 03:03:37;;;;;;;44.50;23.02;;;13.90;99.90;;;15.51;100.00;100756.63;6160577;23;20100;-88
2021/09/04 03:06:03;;;;;;;45.70;25.10;;;13.90;99.90;;;15.45;100.00;100766.59;6161588;23;20411;-88
2021/09/04 03:08:30;;;;;;;52.05;25.63;;;13.80;99.90;;;15.41;100.00;100776.22;6163320;23;20010;-91
2021/09/04 03:10:56;;;;;;;46.03;25.20;;;13.90;99.90;;;15.41;100.00;100762.13;6166383;23;20028;-88
2021/09/04 03:13:22;;;;;;;52.00;25.30;;;13.80;99.90;;;15.43;100.00;100769.00;6166362;23;20035;-90
2021/09/04 03:15:48;;;;;;;48.38;25.77;;;13.80;99.90;;;15.43;100.00;100774.63;6166119;23;20013;-85
2021/09/04 03:18:15;;;;;;;49.90;25.58;;;13.80;99.90;;;15.45;100.00;100766.59;6161479;23;20021;-87
2021/09/04 03:20:41;;;;;;;42.72;22.98;;;13.80;99.90;;;15.42;100.00;100778.63;6162372;23;20064;-88
2021/09/04 03:23:07;;;;;;;48.72;26.45;;;13.80;99.90;;;15.42;100.00;100772.19;6164981;23;20006;-86
2021/09/04 03:25:33;;;;;;;48.50;26.23;;;13.70;99.90;;;15.41;100.00;100771.38;6164880;23;20013;-87
2021/09/04 03:27:59;;;;;;;51.85;27.17;;;13.70;99.90;;;15.32;100.00;100771.69;6165349;23;20379;-91
2021/09/04 03:30:25;;;;;;;43.35;24.75;;;13.70;99.90;;;15.36;100.00;100768.91;6164424;23;20005;-87
2021/09/04 03:32:51;;;;;;;51.55;26.15;;;13.70;99.90;;;15.38;100.00;100771.34;6163735;23;20012;-90
2021/09/04 03:35:16;;;;;;;43.25;25.10;;;13.70;99.90;;;15.37;100.00;100779.00;6164521;23;20084;-87
2021/09/04 03:37:42;;;;;;;50.45;24.90;;;13.70;99.90;;;15.36;100.00;100770.91;6166139;23;20001;-86
2021/09/04 03:40:10;;;;;;;53.22;26.20;;;13.70;99.90;;;15.35;100.00;100772.13;6162732;23;20005;-90
2021/09/04 03:42:35;;;;;;;52.75;27.95;;;13.70;99.90;;;15.34;100.00;100779.75;6186632;23;20005;-87
2021/09/04 03:45:01;;;;;;;50.80;25.75;;;13.70;99.90;;;15.35;100.00;100775.72;6163237;23;20076;-88
2021/09/04 03:47:27;;;;;;;56.00;28.23;;;13.70;99.90;;;15.32;100.00;100771.69;6165698;23;20001;-90
2021/09/04 03:49:54;;;;;;;59.30;28.38;;;13.70;99.90;;;15.36;100.00;100768.09;6169522;23;20009;-86
2021/09/04 03:52:20;;;;;;;58.90;27.83;;;13.60;99.90;;;15.27;100.00;100769.25;6170340;23;20010;-86
2021/09/04 03:54:46;;;;;;;64.40;28.77;;;13.60;99.90;;;15.27;100.00;100774.06;6171499;23;20012;-89
2021/09/04 03:57:11;;;;;;;65.20;30.65;;;13.60;99.90;;;15.06;100.00;100768.19;6170765;23;20012;-89
2021/09/04 03:59:38;;;;;;;65.15;31.02;;;13.60;99.90;;;15.12;100.00;100767.47;6160108;23;20014;-88
2021/09/04 04:02:05;;;;;;;64.30;30.80;;;13.50;99.90;;;15.11;100.00;100770.69;6160308;23;20013;-87
2021/09/04 04:04:31;;;;;;;67.60;31.30;;;13.50;99.90;;;15.12;100.00;100775.91;6160023;23;20041;-87
2021/09/04 04:06:57;;;;;;;65.20;31.85;;;13.50;99.90;;;15.08;100.00;100777.06;6161914;23;20016;-88
2021/09/04 04:09:23;;;;;;;70.70;31.67;;;13.40;99.90;;;15.09;100.00;100781.53;6161015;23;20021;-87
2021/09/04 04:11:48;;;;;;;74.10;33.88;;;13.40;99.90;;;15.09;100.00;100787.94;6160603;23;20002;-87
2021/09/04 04:14:14;;;;;;;68.15;32.30;;;13.40;99.90;;;15.04;100.00;100788.28;6172060;23;20013;-87
2021/09/04 04:16:40;;;;;;;67.93;31.15;;;13.40;99.90;;;15.07;100.00;100789.50;6168042;23;20020;-86
2021/09/04 04:19:06;;;;;;;74.78;33.85;;;13.40;99.90;;;15.06;100.00;100794.31;6158683;23;20025;-87
2021/09/04 04:21:33;;;;;;;73.60;33.10;;;13.40;99.90;;;15.03;100.00;100789.47;6158336;23;20371;-85
2021/09/04 04:24:00;;;;;;;71.80;34.35;;;13.40;99.90;;;15.04;100.00;100795.91;6159742;23;20368;-87
2021/09/04 04:26:26;;;;;;;69.03;32.85;;;13.40;99.90;;;14.93;100.00;100789.38;6159448;23;20041;-86
2021/09/04 04:28:51;;;;;;;74.75;34.72;;;13.40;99.90;;;14.88;100.00;100796.13;6157981;23;20022;-87
2021/09/04 04:31:17;;;;;;;66.18;32.80;;;13.30;99.90;;;14.87;100.00;100793.69;6157918;23;20069;-89
2021/09/04 04:33:43;;;;;;;63.72;32.53;;;13.30;99.90;;;14.89;100.00;100789.31;6157178;23;20336;-88
2021/09/04 04:36:12;;;;;;;71.05;32.17;;;13.30;99.90;;;14.90;100.00;100792.97;6157475;23;20009;-86
2021/09/04 04:38:38;;;;;;;72.55;33.90;;;13.20;99.90;;;14.88;100.00;100792.50;6158343;23;20013;-87
2021/09/04 04:41:04;;;;;;;70.97;34.55;;;13.30;99.90;;;14.87;100.00;100797.31;6158479;23;20447;-86
2021/09/04 04:43:30;;;;;;;78.65;35.67;;;13.30;99.90;;;14.81;100.00;100793.22;6158614;23;20060;-88
2021/09/04 04:45:56;;;;;;;80.90;36.75;;;13.30;99.90;;;14.78;100.00;100792.00;6158808;23;20037;-85
2021/09/04 04:48:22;;;;;;;71.78;34.30;;;13.20;99.90;;;14.81;100.00;100793.22;6159160;23;20077;-85
2021/09/04 04:50:48;;;;;;;78.22;36.63;;;13.20;99.90;;;14.87;100.00;100791.69;6159138;23;20008;-88
2021/09/04 04:53:14;;;;;;;79.25;35.00;;;13.20;99.90;;;14.87;100.00;100788.88;6158339;23;20424;-85
2021/09/04 04:55:40;;;;;;;77.28;35.65;;;13.30;99.90;;;14.81;100.00;100795.22;6159211;23;20036;-88
2021/09/04 04:58:07;;;;;;;84.70;36.30;;;13.20;99.90;;;14.76;100.00;100799.22;6161832;23;20071;-89
2021/09/04 05:00:33;;;;;;;82.00;34.92;;;13.20;99.90;;;14.78;100.00;100806.06;6161302;23;20025;-87
2021/09/04 05:02:58;;;;;;;76.13;34.60;;;13.10;99.90;;;14.78;100.00;100806.06;6161544;23;20010;-86
2021/09/04 05:05:24;;;;;;;74.38;33.92;;;13.20;99.90;;;14.81;100.00;100807.28;6163551;23;20072;-89
2021/09/04 05:07:50;;;;;;;75.05;35.45;;;13.10;99.90;;;14.75;100.00;100806.81;6163314;23;20002;-88
2021/09/04 05:10:16;;;;;;;68.03;32.15;;;13.10;99.90;;;14.67;100.00;100810.72;6163427;23;20006;-88
2021/09/04 05:12:42;;;;;;;69.45;33.72;;;13.10;99.90;;;14.67;100.00;100809.94;6165582;23;20009;-87
2021/09/04 05:15:10;;;;;;;75.00;35.08;;;13.10;99.90;;;14.63;100.00;100803.47;6164155;23;20001;-89
2021/09/04 05:17:36;;;;;;;69.38;34.70;;;13.00;99.90;;;14.61;100.00;100809.44;6164757;23;20471;-86
2021/09/04 05:20:03;;;;;;;75.97;34.67;;;13.00;99.90;;;14.51;100.00;100803.69;6164183;23;20012;-85
2021/09/04 05:22:30;;;;;;;67.07;33.40;;;13.00;99.90;;;14.52;100.00;100805.31;6172946;23;20024;-86
2021/09/04 05:24:56;;;;;;;71.63;32.65;;;13.00;99.90;;;14.56;100.00;100814.59;6177938;23;19993;-89
2021/09/04 05:27:22;;;;;;;68.43;32.58;;;12.90;99.90;;;14.55;100.00;100821.41;6188416;23;20013;-88
2021/09/04 05:29:48;;;;;;;74.30;33.03;;;12.90;99.90;;;14.50;100.00;100816.94;6163357;23;20009;-86
2021/09/04 05:32:22;;;;;;;74.72;33.50;;;12.90;99.90;;;14.54;100.00;100812.19;6139508;23;20005;-87
2021/09/04 05:34:48;;;;;;;72.30;33.28;;;12.90;99.90;;;14.49;100.00;100820.13;6140013;23;20065;-87
2021/09/04 05:37:13;;;;;;;64.40;33.22;;;13.00;99.90;;;14.53;100.00;100824.63;6167700;23;20028;-85
2021/09/04 05:39:39;;;;;;;63.72;31.27;;;12.90;99.90;;;14.55;100.00;100821.41;6144416;23;20024;-90
2021/09/04 05:42:05;;;;;;;74.00;32.15;;;12.90;99.90;;;14.52;100.00;100828.59;6164608;23;20127;-87
2021/09/04 05:44:31;;;;;;;63.88;30.98;;;12.90;99.90;;;14.54;100.00;100833.84;6163243;23;20013;-88
2021/09/04 05:46:58;;;;;;;68.72;32.55;;;12.90;99.90;;;14.52;100.00;100833.41;6138756;23;20017;-86
2021/09/04 05:49:23;;;;;;;65.43;30.13;;;12.90;99.90;;;14.46;100.00;100837.75;6165507;23;20006;-87
2021/09/04 05:51:49;;;;;;;67.28;30.65;;;12.90;99.90;;;14.51;100.00;100837.44;6139266;23;20009;-87
2021/09/04 05:54:15;;;;;;;64.82;29.85;;;13.00;99.90;;;14.56;100.00;100839.91;6164055;23;20005;-88
2021/09/04 05:56:41;;;;;;;62.72;29.35;;;13.00;99.90;;;14.49;100.00;100836.97;6139978;23;20012;-85
2021/09/04 05:59:07;;;;;;;59.85;28.88;;;12.90;99.90;;;14.51;100.00;100837.44;6139688;23;20321;-88
2021/09/04 06:01:32;;;;;;;59.38;28.13;;;12.80;99.90;;;14.51;100.00;100832.59;6163464;23;20016;-87
2021/09/04 06:03:58;;;;;;;69.38;32.05;;;12.90;99.90;;;14.56;100.00;100831.47;6138856;23;20010;-88
2021/09/04 06:06:25;;;;;;;61.00;28.95;;;12.90;99.90;;;14.58;100.00;100829.88;6139623;23;20069;-88
2021/09/04 06:08:51;;;;;;;66.25;31.27;;;12.90;99.90;;;14.56;100.00;100828.66;6163841;23;20010;-87
2021/09/04 06:11:17;;;;;;;68.97;30.05;;;12.90;99.90;;;14.62;100.00;100832.75;6165683;23;20009;-88
2021/09/04 06:13:43;;;;;;;65.07;30.02;;;13.00;99.90;;;14.61;100.00;100833.94;6165733;23;20076;-89
2021/09/04 06:16:09;;;;;;;63.33;28.85;;;12.90;99.90;;;14.56;100.00;100837.91;6140692;23;20470;-86
2021/09/04 06:18:35;;;;;;;56.90;28.25;;;13.00;99.90;;;14.54;100.00;100840.28;6141513;23;20005;-88
2021/09/04 06:21:04;;;;;;;65.43;29.52;;;12.90;99.90;;;14.53;100.00;100844.28;6166336;23;20005;-87
2021/09/04 06:23:33;;;;;;;61.42;28.73;;;13.00;99.90;;;14.58;100.00;100843.94;6141208;23;20009;-89
2021/09/04 06:25:59;;;;;;;64.60;29.20;;;13.00;99.90;;;14.56;100.00;100839.91;6164888;23;20005;-88
2021/09/04 06:28:25;;;;;;;63.40;28.55;;;12.90;99.90;;;14.61;100.00;100845.19;6153021;23;20036;-86
2021/09/04 14:59:36;;;;;;;42.72;25.40;;;19.50;99.90;;;21.20;74.54;100771.34;6106534;23;20409;-87
2021/09/04 15:02:05;;;;;;;41.33;25.17;;;19.60;99.90;;;21.07;76.71;100762.59;6102390;23;20040;-82
2021/09/04 15:04:34;;;;;;;39.08;24.90;;;19.60;99.90;;;21.14;75.95;100758.88;6108755;23;20408;-89
2021/09/04 15:07:13;;;;;;;35.00;23.08;;;19.60;99.90;;;21.21;75.75;100767.28;6105223;23;20006;-86
2021/09/04 15:09:42;;;;;;;35.17;23.83;;;19.70;99.90;;;21.23;75.40;100777.00;6110685;23;20025;-86
2021/09/04 15:12:20;;;;;;;39.88;25.17;;;19.60;99.90;;;21.14;75.10;100764.56;6111412;23;20088;-89
2021/09/04 15:15:39;;;;;;;37.95;23.70;;;19.60;99.90;;;21.00;75.62;100766.31;6137832;23;20020;-90
2021/09/04 15:19:51;;;;;;;40.13;25.63;;;19.50;99.90;;;20.88;77.11;100757.56;6106089;23;20070;-92
2021/09/04 15:23:11;;;;;;;;;;;;;;;;;;;;;
2021/09/04 15:26:52;;;;;;;35.35;23.23;;;19.50;99.90;;;20.96;77.19;100757.06;6136171;23;20029;-91
2021/09/04 15:29:28;;;;;;;42.13;25.77;;;19.40;99.90;;;20.85;76.88;100749.91;5988448;23;20024;-88
2021/09/04 15:37:00;;;;;;;;;;;;;;;;;;;;;
2021/09/04 15:47:51;;;;;;;;;;;;;;;;;;;;;
2021/09/04 15:51:02;;;;;;;35.67;22.88;;;19.40;99.90;;;20.94;76.93;100744.50;6014100;23;20039;-89
2021/09/04 15:54:39;;;;;;;42.50;24.70;;;19.30;99.90;;;20.93;77.49;100737.25;5941100;24;20013;-88
2021/09/04 15:57:46;;;;;;;36.85;22.42;;;19.40;99.90;;;20.88;77.93;100741.34;5991886;23;20027;-89
2021/09/04 16:01:35;;;;;;;41.53;25.08;;;19.40;99.90;;;20.82;77.99;100736.56;6014205;23;20357;-84
2021/09/04 16:04:45;;;;;;;37.65;22.77;;;19.40;99.90;;;20.75;77.96;100730.97;5960350;24;20173;-83
2021/09/04 16:07:47;;;;;;;34.38;21.25;;;19.20;99.90;;;20.66;78.46;100727.88;5958539;24;20016;-84
2021/09/04 16:12:15;;;;;;;32.42;22.40;;;19.20;99.90;;;20.61;79.69;100739.69;5978266;23;20021;-88
2021/09/04 16:31:47;;;;;;;33.28;20.33;;;18.90;99.90;;;20.34;80.32;100723.38;6005566;23;20036;-90
2021/09/04 16:35:16;;;;;;;37.70;22.35;;;18.80;99.90;;;20.24;80.24;100724.28;5988354;23;20004;-89
2021/09/04 20:11:59;;;;;;;50.67;26.40;;;14.90;99.90;;;16.39;100.00;100854.28;6192379;23;20023;-89
2021/09/04 20:14:25;;;;;;;47.05;26.73;;;14.90;99.90;;;16.43;100.00;100853.13;6180857;23;20077;-88
2021/09/04 20:16:51;;;;;;;40.58;25.17;;;14.90;99.90;;;16.45;100.00;100852.69;6180721;23;20435;-88
2021/09/04 20:19:18;;;;;;;41.40;24.45;;;15.00;99.90;;;16.47;100.00;100862.38;6180402;23;20029;-88
2021/09/04 20:21:45;;;;;;;37.90;22.95;;;15.00;99.90;;;16.47;100.00;100861.59;6181367;23;20305;-91
2021/09/04 20:24:12;;;;;;;39.88;24.27;;;15.00;99.90;;;16.49;100.00;100857.19;6170357;23;20009;-90
2021/09/04 20:26:39;;;;;;;36.67;23.23;;;15.00;99.90;;;16.54;100.00;100875.72;6167036;23;20045;-90
2021/09/04 20:29:05;;;;;;;35.17;20.50;;;15.10;99.90;;;16.50;100.00;100875.72;6165169;23;20035;-89
2021/09/04 20:31:32;;;;;;;36.50;21.55;;;15.00;99.90;;;16.49;100.00;100876.91;6167086;23;20039;-89
2021/09/04 20:33:59;;;;;;;34.58;21.15;;;15.10;99.90;;;16.47;100.00;100868.03;6166524;23;20005;-89
2021/09/04 20:39:18;;;;;;;36.33;20.02;;;15.10;99.90;;;16.52;99.67;100872.50;6198621;23;20024;-89
2021/09/04 20:41:51;;;;;;;46.95;29.92;;;15.10;99.90;;;16.43;99.72;100864.38;6196175;23;20024;-89
2021/09/04 20:44:22;;;;;;;35.88;23.77;;;15.00;99.90;;;16.48;98.70;100868.84;6165399;23;20005;-89
2021/09/04 20:46:54;;;;;;;34.30;21.55;;;15.00;99.90;;;16.44;98.62;100866.00;6165345;23;20081;-90
2021/09/04 20:49:22;;;;;;;33.13;20.48;;;15.00;99.90;;;16.40;98.50;100870.81;6166947;23;20005;-90
2021/09/04 20:51:51;;;;;;;35.22;20.77;;;15.00;99.90;;;16.45;98.07;100866.81;6164839;23;20031;-91
2021/09/04 20:54:18;;;;;;;32.28;20.33;;;15.00;99.90;;;16.42;98.02;100857.13;6190475;23;20004;-91
2021/09/04 20:56:45;;;;;;;31.02;19.95;;;15.10;99.90;;;16.46;97.83;100863.59;6164472;23;20385;-89
2021/09/04 20:59:12;;;;;;;31.52;19.75;;;15.00;99.90;;;16.46;97.90;100855.16;6163277;23;20398;-90
2021/09/04 21:01:39;;;;;;;38.25;22.20;;;15.00;99.90;;;16.39;98.16;100857.91;6164934;23;20394;-90
2021/09/04 21:04:06;;;;;;;37.38;22.35;;;15.00;99.90;;;16.43;98.31;100858.75;6166691;23;20092;-88
2021/09/04 21:06:32;;;;;;;34.85;22.55;;;15.00;99.90;;;16.44;98.03;100857.53;6173067;23;20016;-89
2021/09/04 21:08:59;;;;;;;33.78;20.38;;;15.00;99.90;;;16.45;97.71;100855.53;6166570;23;20451;-89
2021/09/04 21:11:26;;;;;;;33.08;21.73;;;15.00;99.90;;;16.37;97.96;100854.69;6163500;23;20009;-91
2021/09/04 21:13:59;;;;;;;39.80;22.60;;;15.00;99.90;;;16.39;98.48;100860.72;6162596;23;20343;-91
2021/09/04 21:16:26;;;;;;;38.22;24.55;;;15.10;99.90;;;16.37;98.82;100853.88;6161933;23;20005;-89
2021/09/04 21:18:54;;;;;;;38.33;23.05;;;15.00;99.90;;;16.42;98.40;100856.31;6188979;23;20016;-89
2021/09/04 21:21:21;;;;;;;34.35;21.50;;;15.00;99.90;;;16.39;98.38;100855.09;6163673;23;20459;-90
2021/09/04 21:23:47;;;;;;;41.03;23.60;;;14.90;99.90;;;16.31;98.04;100859.06;6162189;23;20009;-93
2021/09/04 21:26:14;;;;;;;32.92;20.60;;;14.90;99.90;;;16.34;97.77;100856.25;6161712;23;20009;-92
2021/09/04 21:28:40;;;;;;;34.65;22.15;;;14.90;99.90;;;16.29;97.61;100859.47;6187482;23;20084;-88
2021/09/04 21:31:06;;;;;;;32.42;21.35;;;14.90;99.90;;;16.28;97.41;100863.47;6160876;23;20013;-90
2021/09/04 21:33:32;;;;;;;31.40;20.40;;;14.90;99.90;;;16.25;97.82;100858.63;6159189;23;20083;-90
2021/09/04 21:35:58;;;;;;;35.20;22.45;;;14.90;99.90;;;16.14;98.60;100851.28;6160110;23;20288;-88
2021/09/04 21:38:25;;;;;;;34.70;21.23;;;14.80;99.90;;;16.17;98.05;100851.31;6162247;23;20446;-90
2021/09/04 21:40:53;;;;;;;37.13;21.35;;;14.80;99.90;;;16.15;97.90;100845.25;6163798;23;20009;-88
2021/09/04 21:43:18;;;;;;;33.75;20.90;;;14.80;99.90;;;16.18;97.95;100855.72;6165305;23;20013;-90
2021/09/04 21:45:44;;;;;;;34.45;20.92;;;14.80;99.90;;;16.15;97.77;100842.44;6166286;23;20071;-89
2021/09/04 21:48:10;;;;;;;34.17;20.50;;;14.80;99.90;;;16.18;97.42;100854.94;6168881;23;20019;-90
2021/09/04 21:50:36;;;;;;;32.78;20.63;;;14.80;99.90;;;16.11;97.50;100850.06;6168288;23;20028;-92
2021/09/04 21:53:03;;;;;;;33.33;20.85;;;14.80;99.90;;;16.07;98.08;100839.97;6168551;23;20012;-91
2021/09/04 21:55:29;;;;;;;31.83;20.00;;;14.70;99.90;;;16.07;97.83;100849.22;6166984;23;20434;-90
2021/09/04 21:57:55;;;;;;;33.90;19.55;;;14.60;99.90;;;16.05;98.02;100854.44;6170014;23;20011;-88
2021/09/04 22:00:31;;;;;;;34.92;20.38;;;14.60;99.90;;;16.09;97.65;100854.44;6195014;23;20013;-90
2021/09/04 22:02:57;;;;;;;31.58;19.88;;;14.70;99.90;;;16.04;97.47;100843.56;6170031;23;20008;-89
2021/09/04 22:05:24;;;;;;;33.22;19.85;;;14.70;99.90;;;15.96;97.62;100853.16;6171390;23;20024;-91
2021/09/04 22:07:50;;;;;;;31.42;19.90;;;14.60;99.90;;;15.94;97.41;100847.91;6206898;23;20013;-91
2021/09/04 22:10:16;;;;;;;32.25;20.25;;;14.60;99.90;;;15.89;97.40;100862.38;6178485;23;20009;-90
2021/09/04 22:12:43;;;;;;;35.05;19.52;;;14.50;99.90;;;15.89;97.52;100859.53;6175203;23;20032;-91
2021/09/04 22:15:09;;;;;;;31.02;20.17;;;14.50;99.90;;;15.88;97.54;100860.75;6201630;23;20012;-92
2021/09/04 22:17:36;;;;;;;31.77;20.15;;;14.50;99.90;;;15.83;97.50;100859.06;6202371;23;20035;-90
2021/09/04 22:20:04;;;;;;;33.53;20.67;;;14.40;99.90;;;15.82;97.57;100865.13;6204060;23;20005;-89
2021/09/04 22:22:30;;;;;;;29.33;17.70;;;14.40;99.90;;;15.77;97.40;100865.44;6178302;23;20009;-89
2021/09/04 22:24:56;;;;;;;31.58;19.23;;;14.40;99.90;;;15.65;98.05;100863.75;6176248;23;20019;-92
2021/09/04 22:27:22;;;;;;;30.98;19.45;;;14.30;99.90;;;15.59;98.38;100864.47;6176453;23;20008;-90
2021/09/04 22:29:48;;;;;;;29.17;18.52;;;14.30;99.90;;;15.56;98.69;100870.88;6201191;23;20036;-90
2021/09/04 22:32:15;;;;;;;30.73;19.08;;;14.10;99.90;;;15.47;99.10;100867.53;6175929;23;20291;-90
2021/09/04 22:34:41;;;;;;;29.17;18.17;;;14.10;99.90;;;15.47;99.11;100861.91;6171337;23;20005;-90
2021/09/04 22:39:51;;;;;;;28.58;18.70;;;14.00;99.90;;;15.36;99.62;100873.06;6201374;23;20059;-90
2021/09/04 22:42:17;;;;;;;31.58;18.67;;;14.00;99.90;;;15.30;99.78;100871.78;6175042;23;20009;-91
2021/09/04 22:44:43;;;;;;;27.35;18.35;;;13.90;99.90;;;15.26;100.00;100868.09;6170712;23;20100;-91
2021/09/04 22:47:10;;;;;;;30.67;18.23;;;13.90;99.90;;;15.26;100.00;100883.00;6171771;23;20015;-90
2021/09/04 22:49:36;;;;;;;27.85;16.83;;;13.90;99.90;;;15.18;100.00;100880.50;6174820;23;20358;-91
2021/09/04 22:52:03;;;;;;;29.33;18.02;;;13.80;99.90;;;15.11;100.00;100878.41;6175908;23;20004;-89